Time;durP1;ratioP1;P1;durP2;ratioP2;P2;SDS_P1;SDS_P2;PMS_P1;PMS_P2;Temp;Humidity;BMP_temperature;BMP_pressure;BME280_temperature;BME280_humidity;BME280_pressure;Samples;Min_cycle;Max_cycle;Signal;HPM_P1;HPM_P2
2022/05/20 00:00:49;;;;;;;;;;;;;;;11.79;100.00;102207.63;2607346;36;19950;-59
2022/05/20 00:03:18;;;;;;;;;;;;;;;11.84;100.00;102206.31;2607095;36;20909;-58
2022/05/20 00:05:47;;;;;;;;;;;;;;;11.88;100.00;102207.81;2609302;36;19997;-60
2022/05/20 00:08:15;;;;;;;;;;;;;;;11.85;100.00;102216.13;2606412;36;20420;-58
2022/05/20 00:10:43;;;;;;;;;;;;;;;11.82;100.00;102224.47;2605792;31;20438;-59
2022/05/20 00:13:14;;;;;;;;;;;;;;;11.72;100.00;102223.41;2600632;36;19983;-58
2022/05/20 00:15:42;;;;;;;;;;;;;;;11.75;100.00;102218.63;2607616;31;20479;-59
2022/05/20 00:18:10;;;;;;;;;;;;;;;11.82;100.00;102221.75;2606022;36;20078;-59
2022/05/20 00:20:38;;;;;;;;;;;;;;;11.88;100.00;102221.31;2606439;36;20605;-59
2022/05/20 00:23:06;;;;;;;;;;;;;;;11.86;100.00;102220.53;2606839;36;20009;-58
2022/05/20 00:25:50;;;;;;;;;;;;;;;11.83;100.00;102218.06;2606554;36;20053;-58
2022/05/20 00:28:22;;;;;;;;;;;;;;;11.64;100.00;102210.44;2607015;36;20066;-60
2022/05/20 00:30:51;;;;;;;;;;;;;;;11.68;100.00;102213.78;2606612;36;19958;-59
2022/05/20 00:33:19;;;;;;;;;;;;;;;11.73;100.00;102209.78;2606585;36;20375;-60
2022/05/20 00:35:48;;;;;;;;;;;;;;;11.65;100.00;102211.31;2608358;36;19992;-60
2022/05/20 00:38:16;;;;;;;;;;;;;;;11.63;100.00;102215.94;2606817;36;19950;-58
2022/05/20 00:40:44;;;;;;;;;;;;;;;11.61;100.00;102207.97;2606367;36;19950;-59
2022/05/20 00:43:14;;;;;;;;;;;;;;;11.67;100.00;102210.22;2607540;36;20562;-58
2022/05/20 00:45:45;;;;;;;;;;;;;;;11.83;100.00;102206.44;2609447;36;20026;-59
2022/05/20 00:48:13;;;;;;;;;;;;;;;11.77;100.00;102196.94;2608634;36;20070;-58
2022/05/20 00:50:43;;;;;;;;;;;;;;;11.90;100.00;102200.47;2607998;31;20431;-58
2022/05/20 00:53:12;;;;;;;;;;;;;;;11.89;100.00;102198.72;2606621;36;20046;-60
2022/05/20 00:55:40;;;;;;;;;;;;;;;11.86;100.00;102181.91;2607486;36;19950;-58
2022/05/20 00:58:10;;;;;;;;;;;;;;;11.83;100.00;102193.78;2606568;36;20030;-58
2022/05/20 01:11:09;;;;;;;;;;;;;;;11.54;100.00;102190.50;2611848;36;19974;-58
2022/05/20 01:16:15;;;;;;;;;;;;;;;11.68;100.00;102194.91;2612520;54;19951;-59
2022/05/20 01:18:44;;;;;;;;;;;;;;;11.70;100.00;102188.44;2610268;36;20038;-58
2022/05/20 01:23:47;;;;;;;;;;;;;;;11.62;100.00;102184.56;2606654;31;20526;-59
2022/05/20 01:28:56;;;;;;;;;;;;;;;11.62;100.00;102192.66;2610472;54;20039;-60
2022/05/20 01:36:32;;;;;;;;;;;;;;;11.57;100.00;102188.47;2609005;36;20355;-59
2022/05/20 01:39:03;;;;;;;;;;;;;;;11.58;100.00;102184.75;2609003;36;20436;-60
2022/05/20 01:41:33;;;;;;;;;;;;;;;11.62;100.00;102179.19;2608823;31;19969;-59
2022/05/20 01:44:08;;;;;;;;;;;;;;;11.54;100.00;102174.31;2610652;36;20038;-59
2022/05/20 01:49:14;;;;;;;;;;;;;;;11.51;100.00;102167.34;2610633;54;19985;-60
2022/05/20 01:51:46;;;;;;;;;;;;;;;11.44;100.00;102165.16;2608696;36;20045;-59
2022/05/20 01:54:22;;;;;;;;;;;;;;;11.47;100.00;102159.53;2609421;31;20461;-60
2022/05/20 01:56:52;;;;;;;;;;;;;;;11.55;100.00;102157.16;2609711;36;20412;-59
2022/05/20 01:59:24;;;;;;;;;;;;;;;11.44;100.00;102148.97;2608567;36;20452;-59
2022/05/20 02:04:21;;;;;;;;;;;;;;;11.20;100.00;102155.16;2608506;36;19990;-59
2022/05/20 02:06:53;;;;;;;;;;;;;;;11.25;100.00;102152.13;2608658;36;20485;-59
2022/05/20 02:09:27;;;;;;;;;;;;;;;11.20;100.00;102156.03;2609391;36;20552;-59
2022/05/20 02:12:12;;;;;;;;;;;;;;;11.11;100.00;102147.72;2608734;36;20009;-59
2022/05/20 02:14:49;;;;;;;;;;;;;;;11.19;100.00;102134.59;2611979;54;20042;-60
2022/05/20 02:20:09;;;;;;;;;;;;;;;11.08;100.00;102126.38;2609730;36;19951;-59
2022/05/20 02:22:39;;;;;;;;;;;;;;;10.94;100.00;102132.72;2609804;36;20481;-59
2022/05/20 02:27:44;;;;;;;;;;;;;;;10.95;100.00;102129.06;2608100;36;19973;-60
2022/05/20 02:30:14;;;;;;;;;;;;;;;11.07;100.00;102136.31;2607776;36;19947;-60
2022/05/20 02:32:46;;;;;;;;;;;;;;;10.94;100.00;102128.22;2608478;36;19977;-59
2022/05/20 02:40:21;;;;;;;;;;;;;;;10.60;100.00;102145.84;2614771;36;19984;-59
2022/05/20 02:45:30;;;;;;;;;;;;;;;10.60;100.00;102140.44;2612077;39;20342;-59
2022/05/20 02:53:08;;;;;;;;;;;;;;;10.50;100.00;102142.94;2610441;36;20348;-58
2022/05/20 02:55:36;;;;;;;;;;;;;;;10.42;100.00;102134.50;2609679;54;20586;-59
2022/05/20 03:05:57;;;;;;;;;;;;;;;10.34;100.00;102140.41;2610043;36;20001;-60
2022/05/20 03:08:26;;;;;;;;;;;;;;;10.36;100.00;102129.53;2608942;36;20046;-60
2022/05/20 03:13:32;;;;;;;;;;;;;;;10.22;100.00;102127.72;2611251;36;20058;-60
2022/05/20 03:26:37;;;;;;;;;;;;;;;10.14;100.00;102120.16;2613340;31;20422;-60
2022/05/20 03:39:23;;;;;;;;;;;;;;;10.03;100.00;102134.34;2607883;36;19950;-59
2022/05/20 03:41:57;;;;;;;;;;;;;;;10.08;100.00;102134.88;2612814;54;20034;-59
2022/05/20 03:47:07;;;;;;;;;;;;;;;10.05;100.00;102143.16;2608601;36;19985;-59
2022/05/20 03:49:38;;;;;;;;;;;;;;;10.05;100.00;102143.16;2608074;36;19974;-61
2022/05/20 03:52:06;;;;;;;;;;;;;;;9.99;100.00;102146.25;2607887;31;19955;-60
2022/05/20 03:57:10;;;;;;;;;;;;;;;10.12;100.00;102155.25;2608388;36;20030;-59
2022/05/20 04:04:39;;;;;;;;;;;;;;;10.21;100.00;102147.53;2609468;36;20505;-59
2022/05/20 04:35:20;;;;;;;;;;;;;;;10.84;100.00;102146.84;2613132;39;20360;-60
2022/05/20 04:55:13;;;;;;;;;;;;;;;11.22;100.00;102129.81;2611478;54;19965;-58
2022/05/20 04:57:47;;;;;;;;;;;;;;;11.36;100.00;102138.75;2611302;36;20432;-59
2022/05/20 05:15:07;;;;;;;;;;;;;;;12.19;100.00;102108.44;2608823;36;19951;-60
2022/05/20 05:20:17;;;;;;;;;;;;;;;11.74;100.00;102114.41;2607024;36;19962;-59
2022/05/20 05:22:45;;;;;;;;;;;;;;;11.83;100.00;102120.94;2607089;32;20046;-58
2022/05/20 05:25:15;;;;;;;;;;;;;;;11.92;100.00;102123.00;2608683;36;19955;-59
2022/05/20 05:27:43;;;;;;;;;;;;;;;11.84;100.00;102130.78;2610000;36;20034;-60
2022/05/20 05:30:14;;;;;;;;;;;;;;;12.03;100.00;102124.91;2609867;36;19959;-59
2022/05/20 05:32:43;;;;;;;;;;;;;;;11.92;100.00;102128.38;2607212;36;20489;-59
2022/05/20 05:35:12;;;;;;;;;;;;;;;11.90;100.00;102141.09;2612910;36;19954;-59
2022/05/20 05:37:41;;;;;;;;;;;;;;;11.88;100.00;102131.41;2613522;31;20554;-59
2022/05/20 05:40:11;;;;;;;;;;;;;;;12.15;100.00;102146.56;2612631;36;20053;-58
2022/05/20 05:42:41;;;;;;;;;;;;;;;12.23;100.00;102142.31;2612263;31;20053;-59
2022/05/20 05:45:09;;;;;;;;;;;;;;;12.40;100.00;102142.88;2611353;36;19958;-58
2022/05/20 05:47:40;;;;;;;;;;;;;;;12.54;100.00;102144.50;2611546;36;20034;-59
2022/05/20 05:50:08;;;;;;;;;;;;;;;12.69;100.00;102148.75;2599804;31;21242;-59
2022/05/20 05:52:36;;;;;;;;;;;;;;;12.74;100.00;102153.78;2610895;31;19968;-58
2022/05/20 05:55:05;;;;;;;;;;;;;;;13.03;100.00;102156.06;2613247;36;20527;-59
2022/05/20 05:57:33;;;;;;;;;;;;;;;13.06;100.00;102153.09;2614122;36;19962;-59
2022/05/20 06:00:01;;;;;;;;;;;;;;;12.95;100.00;102162.91;2613320;36;19974;-59
2022/05/20 06:02:29;;;;;;;;;;;;;;;13.10;100.00;102158.19;2614174;36;19954;-58
2022/05/20 06:05:00;;;;;;;;;;;;;;;13.28;100.00;102150.44;2614472;36;21072;-61
2022/05/20 06:07:28;;;;;;;;;;;;;;;13.55;100.00;102151.94;2614375;36;19947;-60
2022/05/20 06:09:56;;;;;;;;;;;;;;;13.72;100.00;102144.28;2612900;36;20108;-59
2022/05/20 06:12:24;;;;;;;;;;;;;;;13.65;100.00;102149.38;2612227;36;20314;-58
2022/05/20 06:14:52;;;;;;;;;;;;;;;13.82;100.00;102154.25;2614074;36;20026;-59
2022/05/20 06:17:20;;;;;;;;;;;;;;;14.11;100.00;102150.97;2614829;54;20752;-59
2022/05/20 06:19:48;;;;;;;;;;;;;;;14.48;100.00;102149.75;2613625;47;20641;-60
2022/05/20 06:22:19;;;;;;;;;;;;;;;14.11;100.00;102155.53;2609977;36;20037;-59
2022/05/20 06:24:47;;;;;;;;;;;;;;;13.79;100.00;102151.78;2613872;36;20046;-58
2022/05/20 06:27:15;;;;;;;;;;;;;;;13.89;100.00;102148.34;2613525;54;20090;-58
2022/05/20 06:32:15;;;;;;;;;;;;;;;14.00;100.00;102137.47;2614038;36;19973;-58
2022/05/20 06:42:47;;;;;;;;;;;;;;;13.84;100.00;102141.44;2615507;36;19990;-60
2022/05/20 06:45:16;;;;;;;;;;;;;;;13.86;100.00;102132.34;2612747;36;19959;-60
2022/05/20 06:47:45;;;;;;;;;;;;;;;13.80;100.00;102136.41;2614113;36;19946;-58
2022/05/20 06:50:14;;;;;;;;;;;;;;;13.97;100.00;102133.19;2611204;36;20117;-57
2022/05/20 06:55:13;;;;;;;;;;;;;;;14.59;100.00;102119.91;2614724;54;19957;-60
2022/05/20 07:00:25;;;;;;;;;;;;;;;15.10;100.00;102101.09;2613497;36;20041;-57
2022/05/20 07:02:53;;;;;;;;;;;;;;;15.66;100.00;102095.16;2615819;36;19977;-58
2022/05/20 07:05:21;;;;;;;;;;;;;;;15.83;100.00;102092.81;2613591;31;20432;-59
2022/05/20 07:07:49;;;;;;;;;;;;;;;15.87;100.00;102088.78;2613375;36;20054;-59
2022/05/20 07:10:19;;;;;;;;;;;;;;;16.23;100.00;102083.69;2613116;36;20372;-58
2022/05/20 07:15:19;;;;;;;;;;;;;;;15.89;100.00;102070.53;2613942;36;20061;-58
2022/05/20 07:17:51;;;;;;;;;;;;;;;16.21;100.00;102075.69;2612880;36;20082;-58
2022/05/20 07:20:19;;;;;;;;;;;;;;;16.29;100.00;102058.66;2610827;36;20049;-58
2022/05/20 07:25:23;;;;;;;;;;;;;;;17.06;100.00;102048.59;2612931;54;19976;-59
2022/05/20 07:30:30;;;;;;;;;;;;;;;17.24;100.00;102039.63;2611752;36;19973;-58
2022/05/20 07:35:33;;;;;;;;;;;;;;;17.26;100.00;102033.03;2612608;36;19951;-59
2022/05/20 07:38:01;;;;;;;;;;;;;;;16.66;100.00;102033.41;2613046;36;19971;-58
2022/05/20 07:40:29;;;;;;;;;;;;;;;16.41;100.00;102032.19;2613204;36;20005;-59
2022/05/20 07:42:57;;;;;;;;;;;;;;;16.37;100.00;102045.22;2613300;36;20274;-58
2022/05/20 07:45:25;;;;;;;;;;;;;;;16.46;100.00;102035.31;2612475;36;20443;-58
2022/05/20 07:47:54;;;;;;;;;;;;;;;16.20;100.00;102041.34;2612805;36;19978;-57
2022/05/20 07:50:22;;;;;;;;;;;;;;;16.13;100.00;102034.78;2616490;36;20030;-59
2022/05/20 07:55:36;;;;;;;;;;;;;;;17.03;100.00;102023.56;2612275;36;19947;-57
2022/05/20 07:58:06;;;;;;;;;;;;;;;16.98;100.00;102024.88;2610951;36;19958;-57
2022/05/20 08:00:34;;;;;;;;;;;;;;;16.67;100.00;102009.81;2611968;36;19957;-58
2022/05/20 08:03:03;;;;;;;;;;;;;;;17.08;100.00;102008.53;2612629;54;20094;-58
2022/05/20 08:05:29;;;;;;;;;;;;;;;17.22;100.00;102012.59;2612213;36;20578;-58
2022/05/20 08:08:02;;;;;;;;;;;;;;;17.70;100.00;102013.28;2611740;31;19967;-59
2022/05/20 08:10:31;;;;;;;;;;;;;;;17.67;100.00;102019.06;2612220;31;20563;-59
2022/05/20 08:15:28;;;;;;;;;;;;;;;17.88;100.00;102001.53;2613288;54;19957;-59
2022/05/20 08:17:56;;;;;;;;;;;;;;;18.56;100.00;101981.81;2612997;36;19958;-59
2022/05/20 08:20:25;;;;;;;;;;;;;;;18.64;100.00;101983.72;2612724;36;20268;-59
2022/05/20 08:22:54;;;;;;;;;;;;;;;18.82;100.00;101972.75;2611504;36;19985;-59
2022/05/20 08:25:25;;;;;;;;;;;;;;;18.97;100.00;101965.66;2612321;36;20536;-59
2022/05/20 08:27:54;;;;;;;;;;;;;;;18.36;100.00;101976.56;2613435;54;20034;-58
2022/05/20 08:30:23;;;;;;;;;;;;;;;18.83;100.00;101966.25;2612026;36;19950;-60
2022/05/20 08:35:26;;;;;;;;;;;;;;;19.39;100.00;101956.59;2612552;36;19947;-59
2022/05/20 08:37:54;;;;;;;;;;;;;;;19.64;100.00;101948.44;2615260;36;20436;-59
2022/05/20 08:40:27;;;;;;;;;;;;;;;19.42;100.00;101945.34;2613592;31;19957;-59
2022/05/20 08:42:56;;;;;;;;;;;;;;;19.79;100.00;101932.25;2612854;36;20471;-61
2022/05/20 08:45:26;;;;;;;;;;;;;;;19.95;100.00;101926.78;2611684;36;20466;-59
2022/05/20 08:47:54;;;;;;;;;;;;;;;19.42;100.00;101928.09;2613112;36;20045;-60
2022/05/20 08:53:01;;;;;;;;;;;;;;;20.13;100.00;101925.75;2612403;54;20037;-62
2022/05/20 08:58:14;;;;;;;;;;;;;;;19.91;100.00;101911.75;2616011;36;19950;-61
2022/05/20 09:10:58;;;;;;;;;;;;;;;20.79;100.00;101873.59;2612133;54;19938;-60
2022/05/20 09:21:32;;;;;;;;;;;;;;;21.46;100.00;101844.72;2612050;54;19989;-59
2022/05/20 09:26:39;;;;;;;;;;;;;;;20.52;100.00;101829.22;2613299;54;19938;-60
2022/05/20 09:29:14;;;;;;;;;;;;;;;21.26;100.00;101823.31;2612525;36;20409;-60
2022/05/20 09:31:46;;;;;;;;;;;;;;;21.18;100.00;101810.53;2613248;36;19959;-60
2022/05/20 09:34:16;;;;;;;;;;;;;;;21.51;100.00;101801.25;2613252;31;19996;-63
2022/05/20 09:36:55;;;;;;;;;;;;;;;21.37;100.00;101794.63;2613223;36;20104;-60
2022/05/20 09:39:26;;;;;;;;;;;;;;;21.73;100.00;101774.81;2612854;36;19966;-60
2022/05/20 09:41:55;;;;;;;;;;;;;;;21.95;100.00;101784.00;2613626;36;19977;-61
2022/05/20 09:44:28;;;;;;;;;;;;;;;21.70;100.00;101770.56;2611476;31;19962;-60
2022/05/20 09:46:57;;;;;;;;;;;;;;;21.99;100.00;101777.06;2612285;36;20365;-60
2022/05/20 09:49:31;;;;;;;;;;;;;;;21.40;100.00;101771.53;2611388;36;20438;-59
2022/05/20 09:52:01;;;;;;;;;;;;;;;21.95;100.00;101766.69;2612072;36;19946;-62
2022/05/20 09:54:32;;;;;;;;;;;;;;;21.84;100.00;101781.72;2613320;31;19989;-61
2022/05/20 09:57:04;;;;;;;;;;;;;;;20.89;100.00;101792.13;2613612;36;20037;-60
2022/05/20 09:59:39;;;;;;;;;;;;;;;20.60;100.00;101785.44;2612829;36;19954;-63
2022/05/20 10:02:12;;;;;;;;;;;;;;;20.77;100.00;101782.63;2613265;36;20527;-59
2022/05/20 10:04:45;;;;;;;;;;;;;;;20.94;100.00;101780.63;2612958;36;19950;-60
2022/05/20 10:17:11;;;;;;;;;;;;;;;22.73;100.00;101765.16;2612667;39;20309;-63
2022/05/20 10:24:46;;;;;;;;;;;;;;;22.36;100.00;101738.75;2612322;54;19945;-59
2022/05/20 10:32:36;;;;;;;;;;;;;;;22.30;100.00;101707.44;2611373;36;19989;-60
2022/05/20 10:50:25;;;;;;;;;;;;;;;22.62;100.00;101647.66;2614680;36;19969;-61
2022/05/20 10:58:04;;;;;;;;;;;;;;;22.38;100.00;101607.78;2613221;54;20716;-62
2022/05/20 11:00:37;;;;;;;;;;;;;;;21.61;100.00;101600.97;2615367;36;19973;-60
2022/05/20 11:03:27;;;;;;;;;;;;;;;22.36;100.00;101599.75;2613650;36;20090;-60
2022/05/20 11:06:11;;;;;;;;;;;;;;;22.55;90.84;101589.16;2613690;36;20001;-59
2022/05/20 11:08:46;;;;;;;;;;;;;;;22.55;84.77;101583.66;2631531;36;20458;-59
2022/05/20 11:11:20;;;;;;;;;;;;;;;22.60;92.72;101575.69;2613517;36;19973;-60
2022/05/20 11:13:58;;;;;;;;;;;;;;;23.03;90.02;101567.34;2613686;36;19977;-60
2022/05/20 11:16:33;;;;;;;;;;;;;;;22.19;100.00;101559.91;2607024;36;20534;-59
2022/05/20 11:19:13;;;;;;;;;;;;;;;22.05;100.00;101543.31;2613950;31;19953;-58
2022/05/20 11:21:57;;;;;;;;;;;;;;;21.88;100.00;101522.69;2613953;36;20329;-59
2022/05/20 11:24:37;;;;;;;;;;;;;;;22.09;100.00;101518.25;2613292;36;20041;-60
2022/05/20 11:27:15;;;;;;;;;;;;;;;22.04;100.00;101508.72;2613593;36;20050;-58
2022/05/20 11:30:00;;;;;;;;;;;;;;;21.87;100.00;101510.03;2613108;36;20061;-59
2022/05/20 11:32:34;;;;;;;;;;;;;;;22.14;100.00;101508.41;2613584;36;20121;-58
2022/05/20 11:35:10;;;;;;;;;;;;;;;22.14;100.00;101485.59;2612944;36;19954;-61
2022/05/20 11:37:56;;;;;;;;;;;;;;;22.28;100.00;101492.91;2612704;36;19981;-58
2022/05/20 11:40:33;;;;;;;;;;;;;;;22.42;99.65;101493.03;2613053;36;20050;-60
2022/05/20 11:43:23;;;;;;;;;;;;;;;22.34;99.32;101477.56;2613473;36;19950;-59
2022/05/20 11:45:56;;;;;;;;;;;;;;;22.56;100.00;101472.88;2612947;36;20049;-58
2022/05/20 11:48:41;;;;;;;;;;;;;;;22.80;100.00;101463.31;2612813;36;19954;-59
2022/05/20 11:51:30;;;;;;;;;;;;;;;22.55;100.00;101450.06;2613005;36;20082;-58
2022/05/20 11:54:05;;;;;;;;;;;;;;;22.66;100.00;101434.97;2612626;36;20065;-59
2022/05/20 11:56:36;;;;;;;;;;;;;;;23.39;99.54;101414.34;2613024;36;20033;-59
2022/05/20 11:59:08;;;;;;;;;;;;;;;23.86;91.27;101403.47;2612079;36;19946;-59
2022/05/20 12:01:36;;;;;;;;;;;;;;;23.80;90.46;101396.88;2611868;36;19962;-59
2022/05/20 12:04:11;;;;;;;;;;;;;;;22.93;95.82;101397.50;2611653;36;19989;-59
2022/05/20 12:06:44;;;;;;;;;;;;;;;22.21;100.00;101393.28;2612497;36;19947;-60
2022/05/20 12:09:32;;;;;;;;;;;;;;;22.82;100.00;101384.38;2612710;31;19957;-59
2022/05/20 12:12:15;;;;;;;;;;;;;;;22.92;100.00;101387.59;2612926;36;19981;-59
2022/05/20 12:14:58;;;;;;;;;;;;;;;22.14;100.00;101373.19;2612583;36;19946;-59
2022/05/20 12:17:31;;;;;;;;;;;;;;;21.70;100.00;101365.06;2612376;31;19978;-59
2022/05/20 12:25:36;;;;;;;;;;;;;;;21.57;100.00;101342.19;2611347;36;19950;-60
2022/05/20 12:28:07;;;;;;;;;;;;;;;21.16;100.00;101338.19;2608120;31;19953;-59
2022/05/20 12:30:40;;;;;;;;;;;;;;;20.87;100.00;101342.72;2611750;36;20436;-61
2022/05/20 12:33:22;;;;;;;;;;;;;;;20.47;100.00;101331.25;2612520;36;20587;-59
2022/05/20 12:36:18;;;;;;;;;;;;;;;20.40;100.00;101322.94;2611953;36;19957;-60
2022/05/20 12:38:47;;;;;;;;;;;;;;;19.84;100.00;101296.09;2612058;36;20819;-59
2022/05/20 12:41:21;;;;;;;;;;;;;;;19.59;100.00;101285.38;2614127;36;20641;-59
2022/05/20 12:43:52;;;;;;;;;;;;;;;19.40;100.00;101292.22;2612947;36;20463;-60
2022/05/20 12:46:29;;;;;;;;;;;;;;;19.19;100.00;101311.16;2612830;36;20030;-59
2022/05/20 12:48:57;;;;;;;;;;;;;;;18.89;100.00;101311.84;2613122;36;20065;-58
2022/05/20 12:51:25;;;;;;;;;;;;;;;18.78;100.00;101325.84;2613347;36;20037;-59
2022/05/20 12:54:03;;;;;;;;;;;;;;;18.81;100.00;101319.22;2613378;36;19993;-58
2022/05/20 12:56:35;;;;;;;;;;;;;;;18.68;100.00;101314.31;2612303;36;19951;-59
2022/05/20 13:17:03;;;;;;;;;;;;;;;17.13;100.00;101337.03;2614499;36;20019;-55
2022/05/20 13:19:35;;;;;;;;;;;;;;;17.47;100.00;101357.81;2614219;31;20430;-53
2022/05/20 13:22:06;;;;;;;;;;;;;;;17.30;100.00;101394.22;2616265;31;20102;-54
2022/05/20 13:24:37;;;;;;;;;;;;;;;17.13;100.00;101424.06;2612659;36;20061;-57
2022/05/20 13:27:06;;;;;;;;;;;;;;;16.87;100.00;101434.16;2606227;36;52033;-52
2022/05/20 13:29:35;;;;;;;;;;;;;;;16.68;100.00;101398.06;2606324;36;20049;-57
2022/05/20 13:34:49;;;;;;;;;;;;;;;17.00;100.00;101358.44;2613074;39;20395;-57
2022/05/20 13:37:21;;;;;;;;;;;;;;;16.82;100.00;101370.25;2612825;36;20030;-57
2022/05/20 13:39:53;;;;;;;;;;;;;;;16.72;100.00;101357.81;2613405;36;20441;-58
2022/05/20 13:42:22;;;;;;;;;;;;;;;17.11;100.00;101351.84;2613059;36;20085;-57
2022/05/20 13:44:50;;;;;;;;;;;;;;;17.18;100.00;101339.25;2613193;31;20520;-58
2022/05/20 13:50:05;;;;;;;;;;;;;;;17.03;100.00;101309.16;2614561;54;19946;-59
2022/05/20 13:52:36;;;;;;;;;;;;;;;16.91;100.00;101302.34;2612231;36;20497;-58
2022/05/20 13:55:07;;;;;;;;;;;;;;;17.09;100.00;101315.78;2610876;36;19946;-58
2022/05/20 13:57:38;;;;;;;;;;;;;;;16.99;100.00;101305.94;2613299;31;19951;-59
2022/05/20 14:00:10;;;;;;;;;;;;;;;16.84;100.00;101282.25;2612859;36;20361;-58
2022/05/20 14:07:51;;;;;;;;;;;;;;;16.86;100.00;101248.44;2612470;54;20413;-57
2022/05/20 14:10:24;;;;;;;;;;;;;;;16.89;100.00;101247.28;2610969;31;19946;-58
2022/05/20 14:12:55;;;;;;;;;;;;;;;16.67;100.00;101238.72;2611443;31;19950;-60
2022/05/20 14:15:27;;;;;;;;;;;;;;;16.78;100.00;101249.28;2611920;36;19955;-58
2022/05/20 14:17:56;;;;;;;;;;;;;;;16.57;100.00;101241.56;2613083;36;19947;-58
2022/05/20 14:25:29;;;;;;;;;;;;;;;16.43;100.00;101232.22;2614992;54;19970;-58
2022/05/20 14:28:11;;;;;;;;;;;;;;;16.02;100.00;101229.34;2612951;36;19946;-57
2022/05/20 14:38:07;;;;;;;;;;;;;;;15.47;100.00;101284.78;2611914;36;19946;-56
2022/05/20 14:45:43;;;;;;;;;;;;;;;15.62;100.00;101341.19;2610845;54;19988;-55
2022/05/20 14:48:14;;;;;;;;;;;;;;;15.57;100.00;101317.25;2618475;36;20030;-56
2022/05/20 14:50:45;;;;;;;;;;;;;;;15.34;100.00;101297.91;2606749;36;19950;-56
2022/05/20 14:53:21;;;;;;;;;;;;;;;15.19;100.00;101282.19;2611252;36;20440;-56
2022/05/20 14:55:50;;;;;;;;;;;;;;;15.03;100.00;101269.34;2612632;36;19954;-58
2022/05/20 14:58:28;;;;;;;;;;;;;;;14.71;100.00;101281.56;2613300;36;19953;-53
2022/05/20 15:03:41;;;;;;;;;;;;;;;14.92;100.00;101268.72;2617301;36;19951;-58
2022/05/20 15:08:41;;;;;;;;;;;;;;;14.89;100.00;101245.50;2613432;36;20351;-58
2022/05/20 15:11:13;;;;;;;;;;;;;;;15.02;100.00;101250.53;2613102;54;19955;-58
2022/05/20 15:13:42;;;;;;;;;;;;;;;14.78;100.00;101251.13;2614067;39;20359;-57
2022/05/20 15:16:10;;;;;;;;;;;;;;;14.49;100.00;101253.00;2617824;36;19958;-56
2022/05/20 15:18:41;;;;;;;;;;;;;;;14.52;100.00;101258.13;2613139;36;20068;-55
2022/05/20 15:23:42;;;;;;;;;;;;;;;14.49;100.00;101257.59;2612951;36;20046;-58
2022/05/20 15:26:12;;;;;;;;;;;;;;;14.54;100.00;101255.25;2613179;36;20034;-57
2022/05/20 15:28:53;;;;;;;;;;;;;;;14.50;100.00;101264.69;2613947;54;19953;-57
2022/05/20 15:36:35;;;;;;;;;;;;;;;14.43;100.00;101339.41;2613225;36;19972;-58
2022/05/20 15:41:36;;;;;;;;;;;;;;;14.46;100.00;101344.56;2613438;36;20038;-58
2022/05/20 15:44:04;;;;;;;;;;;;;;;14.35;100.00;101354.59;2608511;36;19966;-58
2022/05/20 15:51:36;;;;;;;;;;;;;;;14.21;100.00;101384.84;2613750;39;20340;-58
2022/05/20 15:56:38;;;;;;;;;;;;;;;14.26;100.00;101379.81;2613161;31;20393;-58
2022/05/20 15:59:07;;;;;;;;;;;;;;;14.42;100.00;101395.44;2612925;36;19947;-58
2022/05/20 16:01:36;;;;;;;;;;;;;;;14.45;100.00;101399.72;2613255;36;19961;-58
2022/05/20 16:14:18;;;;;;;;;;;;;;;14.44;100.00;101387.16;2611663;36;19953;-56
2022/05/20 16:26:47;;;;;;;;;;;;;;;14.92;100.00;101353.59;2613088;54;19954;-59
2022/05/20 16:29:22;;;;;;;;;;;;;;;14.95;100.00;101350.56;2613430;36;19957;-59
2022/05/20 16:31:50;;;;;;;;;;;;;;;15.02;100.00;101340.81;2613995;31;20399;-60
2022/05/20 16:34:19;;;;;;;;;;;;;;;14.95;100.00;101328.88;2618364;36;19985;-59
2022/05/20 16:36:47;;;;;;;;;;;;;;;15.24;100.00;101306.13;2612539;36;19950;-61
2022/05/20 16:39:15;;;;;;;;;;;;;;;15.42;100.00;101320.50;2611592;36;19950;-60
2022/05/20 16:46:45;;;;;;;;;;;;;;;16.42;100.00;101370.94;2612863;36;19954;-60
2022/05/20 16:49:17;;;;;;;;;;;;;;;16.17;100.00;101375.38;2611401;36;19981;-60
2022/05/20 16:51:46;;;;;;;;;;;;;;;15.95;100.00;101391.19;2611890;36;20874;-60
2022/05/20 16:54:16;;;;;;;;;;;;;;;15.90;100.00;101398.94;2611435;36;19990;-59
2022/05/20 17:02:11;;;;;;;;;;;;;;;15.12;100.00;101440.22;2613293;31;20005;-59
2022/05/20 17:04:39;;;;;;;;;;;;;;;15.11;100.00;101438.53;2611221;36;19958;-59
2022/05/20 17:07:07;;;;;;;;;;;;;;;14.75;100.00;101455.50;2612912;36;19953;-61
2022/05/20 17:09:35;;;;;;;;;;;;;;;14.71;100.00;101462.25;2613458;31;19947;-62
2022/05/20 17:12:03;;;;;;;;;;;;;;;14.68;100.00;101466.09;2612277;36;19972;-60
2022/05/20 17:14:34;;;;;;;;;;;;;;;14.69;100.00;101464.22;2610747;31;20443;-59
2022/05/20 17:24:40;;;;;;;;;;;;;;;15.02;100.00;101478.25;2611937;36;19947;-59
2022/05/20 17:27:10;;;;;;;;;;;;;;;14.74;100.00;101488.16;2612816;36;19946;-59
2022/05/20 17:29:40;;;;;;;;;;;;;;;14.62;100.00;101484.78;2607463;36;19971;-59
2022/05/20 17:32:08;;;;;;;;;;;;;;;14.51;100.00;101483.09;2611789;36;19993;-60
2022/05/20 17:34:37;;;;;;;;;;;;;;;14.41;100.00;101493.94;2610375;36;19984;-60
2022/05/20 17:37:08;;;;;;;;;;;;;;;14.45;100.00;101499.94;2612940;31;20065;-59
2022/05/20 17:39:37;;;;;;;;;;;;;;;14.60;100.00;101512.00;2611248;36;20074;-58
2022/05/20 17:52:22;;;;;;;;;;;;;;;14.04;100.00;101545.28;2613293;39;20384;-58
2022/05/20 17:54:53;;;;;;;;;;;;;;;14.04;100.00;101545.28;2611750;36;19957;-59
2022/05/20 17:57:24;;;;;;;;;;;;;;;14.06;100.00;101556.81;2612180;36;19947;-60
2022/05/20 18:07:26;;;;;;;;;;;;;;;13.90;100.00;101576.31;2612580;39;20366;-58
2022/05/20 18:09:56;;;;;;;;;;;;;;;13.83;100.00;101586.84;2611418;36;20540;-60
2022/05/20 18:12:24;;;;;;;;;;;;;;;13.88;100.00;101589.97;2612447;36;19946;-57
2022/05/20 18:14:58;;;;;;;;;;;;;;;13.88;100.00;101600.78;2611169;36;20054;-59
2022/05/20 18:17:29;;;;;;;;;;;;;;;13.79;100.00;101598.94;2613013;36;20044;-58
2022/05/20 18:27:28;;;;;;;;;;;;;;;13.09;100.00;101610.47;2611108;36;20921;-58
2022/05/20 18:29:56;;;;;;;;;;;;;;;13.27;100.00;101613.38;2611453;36;20026;-58
2022/05/20 18:32:26;;;;;;;;;;;;;;;13.26;100.00;101610.81;2610090;31;19950;-59
2022/05/20 18:49:51;;;;;;;;;;;;;;;12.74;100.00;101635.13;2611736;39;20354;-58
2022/05/20 18:52:20;;;;;;;;;;;;;;;12.62;100.00;101645.16;2610895;31;19998;-58
2022/05/20 19:02:18;;;;;;;;;;;;;;;12.78;100.00;101664.47;2612100;36;19982;-58
2022/05/20 19:04:47;;;;;;;;;;;;;;;12.74;100.00;101671.09;2611311;36;20034;-58
2022/05/20 19:14:47;;;;;;;;;;;;;;;12.52;100.00;101673.91;2610956;36;19977;-59
2022/05/20 19:17:16;;;;;;;;;;;;;;;12.48;100.00;101681.41;2612260;36;20042;-58
2022/05/20 19:19:44;;;;;;;;;;;;;;;12.44;100.00;101682.66;2610867;36;19974;-59
2022/05/20 19:22:14;;;;;;;;;;;;;;;12.45;100.00;101681.66;2612016;36;20620;-59
2022/05/20 19:24:43;;;;;;;;;;;;;;;12.33;100.00;101698.88;2612487;36;19969;-58
2022/05/20 19:42:03;;;;;;;;;;;;;;;12.44;100.00;101712.38;2612390;54;20464;-57
2022/05/20 19:44:31;;;;;;;;;;;;;;;12.48;100.00;101713.78;2612666;36;21442;-55
2022/05/20 19:54:23;;;;;;;;;;;;;;;12.71;100.00;101719.13;2612048;36;19955;-56
2022/05/20 20:04:16;;;;;;;;;;;;;;;12.52;100.00;101734.16;2598933;36;21057;-58
2022/05/20 20:06:45;;;;;;;;;;;;;;;12.52;100.00;101734.16;2613066;36;20859;-56
2022/05/20 20:09:13;;;;;;;;;;;;;;;12.51;100.00;101739.69;2612494;36;19993;-60
2022/05/20 20:19:07;;;;;;;;;;;;;;;12.54;100.00;101761.88;2615517;36;19947;-59
2022/05/20 20:35:00;;;;;;;;;;;;;;;12.44;100.00;101774.47;2611543;36;19954;-59
2022/05/20 20:37:31;;;;;;;;;;;;;;;12.65;100.00;101784.44;2616140;31;20049;-57